sensor_id;sensor_type;location;lat;lon;timestamp;temperature;humidity
9383;DHT22;4731;49.708;10.816;2022-10-16T00:01:15;15.20;99.90
9383;DHT22;4731;49.708;10.816;2022-10-16T00:03:44;15.30;99.90
9383;DHT22;4731;49.708;10.816;2022-10-16T00:06:11;15.30;99.90
9383;DHT22;4731;49.708;10.816;2022-10-16T00:08:38;15.40;99.90
9383;DHT22;4731;49.708;10.816;2022-10-16T00:11:07;15.40;99.90
9383;DHT22;4731;49.708;10.816;2022-10-16T00:13:36;15.40;99.90
9383;DHT22;4731;49.708;10.816;2022-10-16T00:16:04;15.30;99.90
9383;DHT22;4731;49.708;10.816;2022-10-16T00:18:31;15.40;99.90
9383;DHT22;4731;49.708;10.816;2022-10-16T00:21:03;15.30;99.90
9383;DHT22;4731;49.708;10.816;2022-10-16T00:23:31;15.30;99.90
9383;DHT22;4731;49.708;10.816;2022-10-16T00:25:59;15.30;99.90
9383;DHT22;4731;49.708;10.816;2022-10-16T00:28:27;16.60;99.90
9383;DHT22;4731;49.708;10.816;2022-10-16T00:30:54;15.10;99.90
9383;DHT22;4731;49.708;10.816;2022-10-16T00:33:21;15.00;99.90
9383;DHT22;4731;49.708;10.816;2022-10-16T00:35:49;15.20;99.90
9383;DHT22;4731;49.708;10.816;2022-10-16T00:38:17;14.90;99.90
9383;DHT22;4731;49.708;10.816;2022-10-16T00:40:44;14.90;99.90
9383;DHT22;4731;49.708;10.816;2022-10-16T00:43:31;14.90;99.90
9383;DHT22;4731;49.708;10.816;2022-10-16T00:45:58;14.90;99.90
9383;DHT22;4731;49.708;10.816;2022-10-16T00:48:26;14.90;99.90
9383;DHT22;4731;49.708;10.816;2022-10-16T00:50:53;14.90;99.90
9383;DHT22;4731;49.708;10.816;2022-10-16T00:53:22;14.80;99.90
9383;DHT22;4731;49.708;10.816;2022-10-16T00:55:49;14.90;99.90
9383;DHT22;4731;49.708;10.816;2022-10-16T00:58:16;14.70;99.90
9383;DHT22;4731;49.708;10.816;2022-10-16T01:00:43;14.70;99.90
9383;DHT22;4731;49.708;10.816;2022-10-16T01:03:24;14.80;99.90
9383;DHT22;4731;49.708;10.816;2022-10-16T01:05:58;14.80;99.90
9383;DHT22;4731;49.708;10.816;2022-10-16T01:08:33;14.80;99.90
9383;DHT22;4731;49.708;10.816;2022-10-16T01:11:05;14.90;99.90
9383;DHT22;4731;49.708;10.816;2022-10-16T01:13:38;14.80;99.90
9383;DHT22;4731;49.708;10.816;2022-10-16T01:16:12;14.90;99.90
9383;DHT22;4731;49.708;10.816;2022-10-16T01:18:43;14.90;99.90
9383;DHT22;4731;49.708;10.816;2022-10-16T01:21:12;14.80;99.90
9383;DHT22;4731;49.708;10.816;2022-10-16T01:23:48;14.80;99.90
9383;DHT22;4731;49.708;10.816;2022-10-16T01:26:30;14.70;99.90
9383;DHT22;4731;49.708;10.816;2022-10-16T01:29:04;14.70;99.90
9383;DHT22;4731;49.708;10.816;2022-10-16T01:31:36;14.70;99.90
9383;DHT22;4731;49.708;10.816;2022-10-16T01:34:06;14.60;99.90
9383;DHT22;4731;49.708;10.816;2022-10-16T01:36:38;14.60;99.90
9383;DHT22;4731;49.708;10.816;2022-10-16T01:39:06;14.60;99.90
9383;DHT22;4731;49.708;10.816;2022-10-16T01:41:39;14.60;99.90
9383;DHT22;4731;49.708;10.816;2022-10-16T01:44:11;14.60;99.90
9383;DHT22;4731;49.708;10.816;2022-10-16T01:46:43;14.60;99.90
9383;DHT22;4731;49.708;10.816;2022-10-16T01:49:12;14.70;99.90
9383;DHT22;4731;49.708;10.816;2022-10-16T01:51:40;14.70;99.90
9383;DHT22;4731;49.708;10.816;2022-10-16T01:54:08;14.70;99.90
9383;DHT22;4731;49.708;10.816;2022-10-16T01:56:37;14.70;99.90
9383;DHT22;4731;49.708;10.816;2022-10-16T01:59:07;15.00;99.90
9383;DHT22;4731;49.708;10.816;2022-10-16T02:01:39;14.60;99.90
9383;DHT22;4731;49.708;10.816;2022-10-16T02:04:09;14.70;99.90
9383;DHT22;4731;49.708;10.816;2022-10-16T02:06:38;14.60;99.90
9383;DHT22;4731;49.708;10.816;2022-10-16T02:09:04;14.70;99.90
9383;DHT22;4731;49.708;10.816;2022-10-16T02:11:31;14.80;99.90
9383;DHT22;4731;49.708;10.816;2022-10-16T02:14:01;14.80;99.90
9383;DHT22;4731;49.708;10.816;2022-10-16T02:16:33;15.70;99.90
9383;DHT22;4731;49.708;10.816;2022-10-16T02:19:02;14.80;99.90
9383;DHT22;4731;49.708;10.816;2022-10-16T02:21:33;14.80;99.90
9383;DHT22;4731;49.708;10.816;2022-10-16T02:24:08;14.80;99.90
9383;DHT22;4731;49.708;10.816;2022-10-16T02:26:42;14.80;99.90
9383;DHT22;4731;49.708;10.816;2022-10-16T02:29:13;14.80;99.90
9383;DHT22;4731;49.708;10.816;2022-10-16T02:31:45;14.80;99.90
9383;DHT22;4731;49.708;10.816;2022-10-16T02:34:14;14.80;99.90
9383;DHT22;4731;49.708;10.816;2022-10-16T02:36:43;15.10;99.90
9383;DHT22;4731;49.708;10.816;2022-10-16T02:39:11;15.70;99.90
9383;DHT22;4731;49.708;10.816;2022-10-16T02:41:38;14.80;99.90
9383;DHT22;4731;49.708;10.816;2022-10-16T02:44:05;14.90;99.90
9383;DHT22;4731;49.708;10.816;2022-10-16T02:46:32;14.90;99.90
9383;DHT22;4731;49.708;10.816;2022-10-16T02:48:58;14.90;99.90
9383;DHT22;4731;49.708;10.816;2022-10-16T02:51:27;14.80;99.90
9383;DHT22;4731;49.708;10.816;2022-10-16T02:53:53;14.80;99.90
9383;DHT22;4731;49.708;10.816;2022-10-16T02:56:20;14.80;99.90
9383;DHT22;4731;49.708;10.816;2022-10-16T02:58:47;14.80;99.90
9383;DHT22;4731;49.708;10.816;2022-10-16T03:01:13;14.80;99.90
9383;DHT22;4731;49.708;10.816;2022-10-16T03:03:42;15.00;99.90
9383;DHT22;4731;49.708;10.816;2022-10-16T03:06:09;14.80;99.90
9383;DHT22;4731;49.708;10.816;2022-10-16T03:08:37;14.80;99.90
9383;DHT22;4731;49.708;10.816;2022-10-16T03:11:03;15.80;99.90
9383;DHT22;4731;49.708;10.816;2022-10-16T03:13:30;14.70;99.90
9383;DHT22;4731;49.708;10.816;2022-10-16T03:15:57;14.60;99.90
9383;DHT22;4731;49.708;10.816;2022-10-16T03:18:24;14.60;99.90
9383;DHT22;4731;49.708;10.816;2022-10-16T03:20:50;14.60;99.90
9383;DHT22;4731;49.708;10.816;2022-10-16T03:23:17;14.60;99.90
9383;DHT22;4731;49.708;10.816;2022-10-16T03:25:45;16.10;99.90
9383;DHT22;4731;49.708;10.816;2022-10-16T03:28:12;17.00;99.90
9383;DHT22;4731;49.708;10.816;2022-10-16T03:30:39;14.80;99.90
9383;DHT22;4731;49.708;10.816;2022-10-16T03:33:06;14.60;99.90
9383;DHT22;4731;49.708;10.816;2022-10-16T03:35:33;14.50;99.90
9383;DHT22;4731;49.708;10.816;2022-10-16T03:37:59;14.60;99.90
9383;DHT22;4731;49.708;10.816;2022-10-16T03:40:26;15.70;99.90
9383;DHT22;4731;49.708;10.816;2022-10-16T03:42:54;14.60;99.90
9383;DHT22;4731;49.708;10.816;2022-10-16T03:45:22;14.60;99.90
9383;DHT22;4731;49.708;10.816;2022-10-16T03:47:49;14.60;99.90
9383;DHT22;4731;49.708;10.816;2022-10-16T03:50:16;14.60;99.90
9383;DHT22;4731;49.708;10.816;2022-10-16T03:52:43;14.60;99.90
9383;DHT22;4731;49.708;10.816;2022-10-16T03:55:09;14.60;99.90
9383;DHT22;4731;49.708;10.816;2022-10-16T03:57:36;14.70;99.90
9383;DHT22;4731;49.708;10.816;2022-10-16T04:00:05;14.70;99.90
9383;DHT22;4731;49.708;10.816;2022-10-16T04:02:32;14.70;99.90
9383;DHT22;4731;49.708;10.816;2022-10-16T04:04:59;14.70;99.90
9383;DHT22;4731;49.708;10.816;2022-10-16T04:07:26;14.80;99.90
9383;DHT22;4731;49.708;10.816;2022-10-16T04:09:52;14.70;99.90
9383;DHT22;4731;49.708;10.816;2022-10-16T04:12:19;14.70;99.90
9383;DHT22;4731;49.708;10.816;2022-10-16T04:14:46;14.60;99.90
9383;DHT22;4731;49.708;10.816;2022-10-16T04:17:14;14.60;99.90
9383;DHT22;4731;49.708;10.816;2022-10-16T04:19:41;14.80;99.90
9383;DHT22;4731;49.708;10.816;2022-10-16T04:22:08;14.60;99.90
9383;DHT22;4731;49.708;10.816;2022-10-16T04:24:34;15.10;99.90
9383;DHT22;4731;49.708;10.816;2022-10-16T04:27:01;14.70;99.90
9383;DHT22;4731;49.708;10.816;2022-10-16T04:29:28;14.80;99.90
9383;DHT22;4731;49.708;10.816;2022-10-16T04:31:55;14.80;99.90
9383;DHT22;4731;49.708;10.816;2022-10-16T04:34:23;14.90;99.90
9383;DHT22;4731;49.708;10.816;2022-10-16T04:36:49;14.80;99.90
9383;DHT22;4731;49.708;10.816;2022-10-16T04:39:17;14.70;99.90
9383;DHT22;4731;49.708;10.816;2022-10-16T04:41:44;14.70;99.90
9383;DHT22;4731;49.708;10.816;2022-10-16T04:44:10;14.70;99.90
9383;DHT22;4731;49.708;10.816;2022-10-16T04:46:37;14.70;99.90
9383;DHT22;4731;49.708;10.816;2022-10-16T04:49:04;14.70;99.90
9383;DHT22;4731;49.708;10.816;2022-10-16T04:51:32;14.70;99.90
9383;DHT22;4731;49.708;10.816;2022-10-16T04:53:59;14.70;99.90
9383;DHT22;4731;49.708;10.816;2022-10-16T04:56:26;14.60;99.90
9383;DHT22;4731;49.708;10.816;2022-10-16T04:58:52;14.60;99.90
9383;DHT22;4731;49.708;10.816;2022-10-16T05:01:19;14.60;99.90
9383;DHT22;4731;49.708;10.816;2022-10-16T05:03:46;14.70;99.90
9383;DHT22;4731;49.708;10.816;2022-10-16T05:06:13;15.90;99.90
9383;DHT22;4731;49.708;10.816;2022-10-16T05:08:41;16.20;99.90
9383;DHT22;4731;49.708;10.816;2022-10-16T05:11:07;14.60;99.90
9383;DHT22;4731;49.708;10.816;2022-10-16T05:13:34;14.60;99.90
9383;DHT22;4731;49.708;10.816;2022-10-16T05:16:01;15.90;99.90
9383;DHT22;4731;49.708;10.816;2022-10-16T05:18:28;14.60;99.90
9383;DHT22;4731;49.708;10.816;2022-10-16T05:20:54;14.50;99.90
9383;DHT22;4731;49.708;10.816;2022-10-16T05:23:21;14.50;99.90
9383;DHT22;4731;49.708;10.816;2022-10-16T05:25:53;14.50;99.90
9383;DHT22;4731;49.708;10.816;2022-10-16T05:28:20;14.50;99.90
9383;DHT22;4731;49.708;10.816;2022-10-16T05:30:47;14.50;99.90
9383;DHT22;4731;49.708;10.816;2022-10-16T05:33:14;14.60;99.90
9383;DHT22;4731;49.708;10.816;2022-10-16T05:35:41;16.50;99.90
9383;DHT22;4731;49.708;10.816;2022-10-16T05:38:07;14.60;99.90
9383;DHT22;4731;49.708;10.816;2022-10-16T05:40:35;14.60;99.90
9383;DHT22;4731;49.708;10.816;2022-10-16T05:43:03;14.50;99.90
9383;DHT22;4731;49.708;10.816;2022-10-16T05:45:30;14.40;99.90
9383;DHT22;4731;49.708;10.816;2022-10-16T05:47:56;14.40;99.90
9383;DHT22;4731;49.708;10.816;2022-10-16T05:50:23;14.40;99.90
9383;DHT22;4731;49.708;10.816;2022-10-16T05:52:50;14.40;99.90
9383;DHT22;4731;49.708;10.816;2022-10-16T05:55:17;14.30;99.90
9383;DHT22;4731;49.708;10.816;2022-10-16T05:57:44;14.40;99.90
9383;DHT22;4731;49.708;10.816;2022-10-16T06:00:12;14.40;99.90
9383;DHT22;4731;49.708;10.816;2022-10-16T06:02:39;14.50;99.90
9383;DHT22;4731;49.708;10.816;2022-10-16T06:05:06;14.40;99.90
9383;DHT22;4731;49.708;10.816;2022-10-16T06:07:34;14.40;99.90
9383;DHT22;4731;49.708;10.816;2022-10-16T06:10:02;14.40;99.90
9383;DHT22;4731;49.708;10.816;2022-10-16T06:12:30;14.40;99.90
9383;DHT22;4731;49.708;10.816;2022-10-16T06:14:56;14.40;99.90
9383;DHT22;4731;49.708;10.816;2022-10-16T06:17:25;14.50;99.90
9383;DHT22;4731;49.708;10.816;2022-10-16T06:19:51;14.60;99.90
9383;DHT22;4731;49.708;10.816;2022-10-16T06:22:18;14.80;99.90
9383;DHT22;4731;49.708;10.816;2022-10-16T06:24:46;14.90;99.90
9383;DHT22;4731;49.708;10.816;2022-10-16T06:27:13;15.00;99.90
9383;DHT22;4731;49.708;10.816;2022-10-16T06:29:39;15.00;99.90
9383;DHT22;4731;49.708;10.816;2022-10-16T06:32:06;15.00;99.90
9383;DHT22;4731;49.708;10.816;2022-10-16T06:34:34;16.30;99.90
9383;DHT22;4731;49.708;10.816;2022-10-16T06:37:01;15.00;99.90
9383;DHT22;4731;49.708;10.816;2022-10-16T06:39:28;15.00;99.90
9383;DHT22;4731;49.708;10.816;2022-10-16T06:41:54;15.00;99.90
9383;DHT22;4731;49.708;10.816;2022-10-16T06:44:21;15.00;99.90
9383;DHT22;4731;49.708;10.816;2022-10-16T06:46:48;15.00;99.90
9383;DHT22;4731;49.708;10.816;2022-10-16T06:49:15;15.00;99.90
9383;DHT22;4731;49.708;10.816;2022-10-16T06:51:48;15.00;99.90
9383;DHT22;4731;49.708;10.816;2022-10-16T06:54:15;15.00;99.90
9383;DHT22;4731;49.708;10.816;2022-10-16T06:56:43;15.00;99.90
9383;DHT22;4731;49.708;10.816;2022-10-16T06:59:09;15.10;99.90
9383;DHT22;4731;49.708;10.816;2022-10-16T07:01:36;17.10;99.90
9383;DHT22;4731;49.708;10.816;2022-10-16T07:04:03;15.10;99.90
9383;DHT22;4731;49.708;10.816;2022-10-16T07:06:32;15.10;99.90
9383;DHT22;4731;49.708;10.816;2022-10-16T07:09:04;15.10;99.90
9383;DHT22;4731;49.708;10.816;2022-10-16T07:11:31;15.10;99.90
9383;DHT22;4731;49.708;10.816;2022-10-16T07:13:59;15.20;99.90
9383;DHT22;4731;49.708;10.816;2022-10-16T07:16:27;15.30;99.90
9383;DHT22;4731;49.708;10.816;2022-10-16T07:18:54;15.30;99.90
9383;DHT22;4731;49.708;10.816;2022-10-16T07:21:24;15.20;99.90
9383;DHT22;4731;49.708;10.816;2022-10-16T07:23:52;15.20;99.90
9383;DHT22;4731;49.708;10.816;2022-10-16T07:26:20;15.20;99.90
9383;DHT22;4731;49.708;10.816;2022-10-16T07:28:47;15.20;99.90
9383;DHT22;4731;49.708;10.816;2022-10-16T07:31:15;17.20;99.90
9383;DHT22;4731;49.708;10.816;2022-10-16T07:33:44;15.10;99.90
9383;DHT22;4731;49.708;10.816;2022-10-16T07:36:11;15.10;99.90
9383;DHT22;4731;49.708;10.816;2022-10-16T07:38:38;15.90;99.90
9383;DHT22;4731;49.708;10.816;2022-10-16T07:41:07;15.20;99.90
9383;DHT22;4731;49.708;10.816;2022-10-16T07:43:35;15.40;99.90
9383;DHT22;4731;49.708;10.816;2022-10-16T07:46:02;15.60;99.90
9383;DHT22;4731;49.708;10.816;2022-10-16T07:48:31;15.90;99.90
9383;DHT22;4731;49.708;10.816;2022-10-16T07:50:59;16.00;99.90
9383;DHT22;4731;49.708;10.816;2022-10-16T07:53:26;16.10;99.90
9383;DHT22;4731;49.708;10.816;2022-10-16T07:55:57;16.20;99.90
9383;DHT22;4731;49.708;10.816;2022-10-16T07:58:24;16.10;99.90
9383;DHT22;4731;49.708;10.816;2022-10-16T08:00:52;16.00;99.90
9383;DHT22;4731;49.708;10.816;2022-10-16T08:03:19;16.00;99.90
9383;DHT22;4731;49.708;10.816;2022-10-16T08:05:46;16.10;99.90
9383;DHT22;4731;49.708;10.816;2022-10-16T08:08:14;16.10;99.90
9383;DHT22;4731;49.708;10.816;2022-10-16T08:10:41;16.10;99.90
9383;DHT22;4731;49.708;10.816;2022-10-16T08:13:08;16.50;99.90
9383;DHT22;4731;49.708;10.816;2022-10-16T08:15:35;16.00;99.90
9383;DHT22;4731;49.708;10.816;2022-10-16T08:18:04;15.90;99.90
9383;DHT22;4731;49.708;10.816;2022-10-16T08:20:33;16.10;99.90
9383;DHT22;4731;49.708;10.816;2022-10-16T08:23:00;16.80;99.90
9383;DHT22;4731;49.708;10.816;2022-10-16T08:25:28;16.00;99.90
9383;DHT22;4731;49.708;10.816;2022-10-16T08:27:55;17.90;99.90
9383;DHT22;4731;49.708;10.816;2022-10-16T08:30:23;17.30;99.90
9383;DHT22;4731;49.708;10.816;2022-10-16T08:32:50;16.00;99.90
9383;DHT22;4731;49.708;10.816;2022-10-16T08:35:18;16.10;99.90
9383;DHT22;4731;49.708;10.816;2022-10-16T08:37:44;16.30;99.90
9383;DHT22;4731;49.708;10.816;2022-10-16T08:40:17;16.40;99.90
9383;DHT22;4731;49.708;10.816;2022-10-16T08:42:57;16.70;99.90
9383;DHT22;4731;49.708;10.816;2022-10-16T08:45:49;17.10;99.90
9383;DHT22;4731;49.708;10.816;2022-10-16T08:48:22;17.20;99.90
9383;DHT22;4731;49.708;10.816;2022-10-16T08:50:53;17.30;99.90
9383;DHT22;4731;49.708;10.816;2022-10-16T08:53:23;17.30;99.90
9383;DHT22;4731;49.708;10.816;2022-10-16T08:55:52;17.10;99.90
9383;DHT22;4731;49.708;10.816;2022-10-16T08:58:21;17.40;99.90
9383;DHT22;4731;49.708;10.816;2022-10-16T09:00:50;17.40;99.90
9383;DHT22;4731;49.708;10.816;2022-10-16T09:03:24;17.40;99.90
9383;DHT22;4731;49.708;10.816;2022-10-16T09:06:17;17.80;99.90
9383;DHT22;4731;49.708;10.816;2022-10-16T09:09:01;18.70;99.90
9383;DHT22;4731;49.708;10.816;2022-10-16T09:11:39;19.70;99.90
9383;DHT22;4731;49.708;10.816;2022-10-16T09:14:18;19.60;99.90
9383;DHT22;4731;49.708;10.816;2022-10-16T09:16:53;19.20;99.90
9383;DHT22;4731;49.708;10.816;2022-10-16T09:19:27;18.90;99.90
9383;DHT22;4731;49.708;10.816;2022-10-16T09:21:59;18.90;99.90
9383;DHT22;4731;49.708;10.816;2022-10-16T09:24:29;18.20;99.90
9383;DHT22;4731;49.708;10.816;2022-10-16T09:26:56;18.30;99.90
9383;DHT22;4731;49.708;10.816;2022-10-16T09:29:23;18.10;99.90
9383;DHT22;4731;49.708;10.816;2022-10-16T09:31:50;18.30;99.90
9383;DHT22;4731;49.708;10.816;2022-10-16T09:34:24;17.80;99.90
9383;DHT22;4731;49.708;10.816;2022-10-16T09:36:54;17.50;99.90
9383;DHT22;4731;49.708;10.816;2022-10-16T09:39:23;17.60;99.90
9383;DHT22;4731;49.708;10.816;2022-10-16T09:41:51;17.70;99.90
9383;DHT22;4731;49.708;10.816;2022-10-16T09:44:21;18.00;99.90
9383;DHT22;4731;49.708;10.816;2022-10-16T09:47:00;17.90;99.90
9383;DHT22;4731;49.708;10.816;2022-10-16T09:49:27;18.20;99.90
9383;DHT22;4731;49.708;10.816;2022-10-16T09:52:03;18.60;99.90
9383;DHT22;4731;49.708;10.816;2022-10-16T09:54:31;18.60;99.90
9383;DHT22;4731;49.708;10.816;2022-10-16T09:57:05;18.60;99.90
9383;DHT22;4731;49.708;10.816;2022-10-16T09:59:32;18.60;99.90
9383;DHT22;4731;49.708;10.816;2022-10-16T10:02:04;18.90;99.90
9383;DHT22;4731;49.708;10.816;2022-10-16T10:04:41;19.00;99.90
9383;DHT22;4731;49.708;10.816;2022-10-16T10:07:17;19.00;99.90
9383;DHT22;4731;49.708;10.816;2022-10-16T10:09:46;18.80;99.90
9383;DHT22;4731;49.708;10.816;2022-10-16T10:12:21;18.40;99.90
9383;DHT22;4731;49.708;10.816;2022-10-16T10:14:49;18.30;99.90
9383;DHT22;4731;49.708;10.816;2022-10-16T10:17:18;18.60;99.90
9383;DHT22;4731;49.708;10.816;2022-10-16T10:19:51;18.60;99.90
9383;DHT22;4731;49.708;10.816;2022-10-16T10:22:39;18.50;99.90
9383;DHT22;4731;49.708;10.816;2022-10-16T10:25:23;18.70;99.90
9383;DHT22;4731;49.708;10.816;2022-10-16T10:31:06;18.70;99.90
9383;DHT22;4731;49.708;10.816;2022-10-16T10:33:40;18.20;99.90
9383;DHT22;4731;49.708;10.816;2022-10-16T10:36:14;18.30;99.90
9383;DHT22;4731;49.708;10.816;2022-10-16T10:38:47;18.30;99.90
9383;DHT22;4731;49.708;10.816;2022-10-16T10:41:41;18.10;99.90
9383;DHT22;4731;49.708;10.816;2022-10-16T10:44:21;18.10;99.90
9383;DHT22;4731;49.708;10.816;2022-10-16T10:46:56;17.20;99.90
9383;DHT22;4731;49.708;10.816;2022-10-16T10:49:37;18.50;99.90
9383;DHT22;4731;49.708;10.816;2022-10-16T10:52:22;18.70;99.90
9383;DHT22;4731;49.708;10.816;2022-10-16T10:54:57;19.00;99.90
9383;DHT22;4731;49.708;10.816;2022-10-16T10:57:32;19.10;99.90
9383;DHT22;4731;49.708;10.816;2022-10-16T11:00:16;19.30;99.90
9383;DHT22;4731;49.708;10.816;2022-10-16T11:02:50;19.30;99.90
9383;DHT22;4731;49.708;10.816;2022-10-16T11:05:38;19.40;99.90
9383;DHT22;4731;49.708;10.816;2022-10-16T11:08:11;19.30;99.90
9383;DHT22;4731;49.708;10.816;2022-10-16T11:10:46;19.90;99.90
9383;DHT22;4731;49.708;10.816;2022-10-16T11:13:25;20.40;99.90
9383;DHT22;4731;49.708;10.816;2022-10-16T11:15:57;21.50;99.90
9383;DHT22;4731;49.708;10.816;2022-10-16T11:18:29;22.30;99.90
9383;DHT22;4731;49.708;10.816;2022-10-16T11:21:01;23.80;99.90
9383;DHT22;4731;49.708;10.816;2022-10-16T11:23:35;26.60;99.90
9383;DHT22;4731;49.708;10.816;2022-10-16T11:26:11;27.50;99.90
9383;DHT22;4731;49.708;10.816;2022-10-16T11:28:45;25.90;99.90
9383;DHT22;4731;49.708;10.816;2022-10-16T11:31:17;25.30;99.90
9383;DHT22;4731;49.708;10.816;2022-10-16T11:33:49;22.20;99.90
9383;DHT22;4731;49.708;10.816;2022-10-16T11:36:21;22.10;99.90
9383;DHT22;4731;49.708;10.816;2022-10-16T11:38:54;22.30;99.90
9383;DHT22;4731;49.708;10.816;2022-10-16T11:41:28;22.20;99.90
9383;DHT22;4731;49.708;10.816;2022-10-16T11:44:12;22.30;99.90
9383;DHT22;4731;49.708;10.816;2022-10-16T11:46:43;22.10;99.90
9383;DHT22;4731;49.708;10.816;2022-10-16T11:49:15;21.80;99.90
9383;DHT22;4731;49.708;10.816;2022-10-16T11:51:48;21.60;99.90
9383;DHT22;4731;49.708;10.816;2022-10-16T11:54:20;21.00;99.90
9383;DHT22;4731;49.708;10.816;2022-10-16T11:56:50;20.60;99.90
9383;DHT22;4731;49.708;10.816;2022-10-16T11:59:27;20.60;99.90
9383;DHT22;4731;49.708;10.816;2022-10-16T12:02:07;20.70;99.90
9383;DHT22;4731;49.708;10.816;2022-10-16T12:04:42;21.60;99.90
9383;DHT22;4731;49.708;10.816;2022-10-16T12:07:14;23.20;99.90
9383;DHT22;4731;49.708;10.816;2022-10-16T12:09:43;24.50;99.90
9383;DHT22;4731;49.708;10.816;2022-10-16T12:12:24;26.10;99.90
9383;DHT22;4731;49.708;10.816;2022-10-16T12:15:02;28.30;99.90
9383;DHT22;4731;49.708;10.816;2022-10-16T12:17:36;31.10;99.90
9383;DHT22;4731;49.708;10.816;2022-10-16T12:20:20;33.00;99.90
9383;DHT22;4731;49.708;10.816;2022-10-16T12:22:50;35.20;99.90
9383;DHT22;4731;49.708;10.816;2022-10-16T12:25:22;36.50;99.90
9383;DHT22;4731;49.708;10.816;2022-10-16T12:27:55;37.70;99.90
9383;DHT22;4731;49.708;10.816;2022-10-16T12:30:25;38.60;99.90
9383;DHT22;4731;49.708;10.816;2022-10-16T12:32:56;39.90;99.90
9383;DHT22;4731;49.708;10.816;2022-10-16T12:35:27;40.90;99.90
9383;DHT22;4731;49.708;10.816;2022-10-16T12:38:05;41.90;97.40
9383;DHT22;4731;49.708;10.816;2022-10-16T12:40:34;41.30;95.20
9383;DHT22;4731;49.708;10.816;2022-10-16T12:46:18;36.70;95.80
9383;DHT22;4731;49.708;10.816;2022-10-16T12:48:47;37.80;97.70
9383;DHT22;4731;49.708;10.816;2022-10-16T12:51:23;37.90;96.60
9383;DHT22;4731;49.708;10.816;2022-10-16T12:53:58;39.00;95.30
9383;DHT22;4731;49.708;10.816;2022-10-16T12:56:33;40.60;94.50
9383;DHT22;4731;49.708;10.816;2022-10-16T12:59:11;41.40;92.30
9383;DHT22;4731;49.708;10.816;2022-10-16T13:02:00;40.50;90.90
9383;DHT22;4731;49.708;10.816;2022-10-16T13:04:50;37.20;93.40
9383;DHT22;4731;49.708;10.816;2022-10-16T13:07:39;35.20;98.80
9383;DHT22;4731;49.708;10.816;2022-10-16T13:10:14;35.60;98.40
9383;DHT22;4731;49.708;10.816;2022-10-16T13:13:00;34.80;99.90
9383;DHT22;4731;49.708;10.816;2022-10-16T13:15:41;35.40;99.90
9383;DHT22;4731;49.708;10.816;2022-10-16T13:18:18;34.50;99.90
9383;DHT22;4731;49.708;10.816;2022-10-16T13:20:56;36.30;99.90
9383;DHT22;4731;49.708;10.816;2022-10-16T13:23:29;37.70;98.60
9383;DHT22;4731;49.708;10.816;2022-10-16T13:26:10;37.40;96.30
9383;DHT22;4731;49.708;10.816;2022-10-16T13:28:40;36.30;97.20
9383;DHT22;4731;49.708;10.816;2022-10-16T13:31:15;36.40;98.10
9383;DHT22;4731;49.708;10.816;2022-10-16T13:33:47;36.10;97.60
9383;DHT22;4731;49.708;10.816;2022-10-16T13:36:21;35.60;99.30
9383;DHT22;4731;49.708;10.816;2022-10-16T13:38:48;34.10;99.90
9383;DHT22;4731;49.708;10.816;2022-10-16T13:41:16;34.50;99.90
9383;DHT22;4731;49.708;10.816;2022-10-16T13:43:45;34.80;99.90
9383;DHT22;4731;49.708;10.816;2022-10-16T13:46:15;33.40;99.90
9383;DHT22;4731;49.708;10.816;2022-10-16T13:48:44;32.50;99.90
9383;DHT22;4731;49.708;10.816;2022-10-16T13:51:14;31.90;99.90
9383;DHT22;4731;49.708;10.816;2022-10-16T13:53:41;29.50;99.90
9383;DHT22;4731;49.708;10.816;2022-10-16T13:56:12;28.50;99.90
9383;DHT22;4731;49.708;10.816;2022-10-16T13:58:39;26.60;99.90
9383;DHT22;4731;49.708;10.816;2022-10-16T14:01:16;26.40;99.90
9383;DHT22;4731;49.708;10.816;2022-10-16T14:03:45;26.60;99.90
9383;DHT22;4731;49.708;10.816;2022-10-16T14:06:14;27.80;99.90
9383;DHT22;4731;49.708;10.816;2022-10-16T14:08:44;29.80;99.90
9383;DHT22;4731;49.708;10.816;2022-10-16T14:11:11;30.50;99.90
9383;DHT22;4731;49.708;10.816;2022-10-16T14:13:43;30.90;99.90
9383;DHT22;4731;49.708;10.816;2022-10-16T14:16:15;32.00;99.90
9383;DHT22;4731;49.708;10.816;2022-10-16T14:18:53;33.20;99.90
9383;DHT22;4731;49.708;10.816;2022-10-16T14:21:21;33.40;99.90
9383;DHT22;4731;49.708;10.816;2022-10-16T14:23:48;32.60;99.90
9383;DHT22;4731;49.708;10.816;2022-10-16T14:26:17;31.10;99.90
9383;DHT22;4731;49.708;10.816;2022-10-16T14:28:46;31.10;99.90
9383;DHT22;4731;49.708;10.816;2022-10-16T14:31:30;30.60;99.90
9383;DHT22;4731;49.708;10.816;2022-10-16T14:33:59;29.00;99.90
9383;DHT22;4731;49.708;10.816;2022-10-16T14:36:27;26.50;99.90
9383;DHT22;4731;49.708;10.816;2022-10-16T14:39:05;25.40;99.90
9383;DHT22;4731;49.708;10.816;2022-10-16T14:41:41;24.50;99.90
9383;DHT22;4731;49.708;10.816;2022-10-16T14:44:10;24.10;99.90
9383;DHT22;4731;49.708;10.816;2022-10-16T14:46:40;24.00;99.90
9383;DHT22;4731;49.708;10.816;2022-10-16T14:49:16;23.60;99.90
9383;DHT22;4731;49.708;10.816;2022-10-16T14:51:45;23.30;99.90
9383;DHT22;4731;49.708;10.816;2022-10-16T14:54:13;22.70;99.90
9383;DHT22;4731;49.708;10.816;2022-10-16T14:56:47;22.60;99.90
9383;DHT22;4731;49.708;10.816;2022-10-16T14:59:17;22.30;99.90
9383;DHT22;4731;49.708;10.816;2022-10-16T15:01:44;22.10;99.90
9383;DHT22;4731;49.708;10.816;2022-10-16T15:04:12;22.10;99.90
9383;DHT22;4731;49.708;10.816;2022-10-16T15:06:40;24.80;99.90
9383;DHT22;4731;49.708;10.816;2022-10-16T15:09:07;22.20;99.90
9383;DHT22;4731;49.708;10.816;2022-10-16T15:11:34;22.10;99.90
9383;DHT22;4731;49.708;10.816;2022-10-16T15:14:01;22.10;99.90
9383;DHT22;4731;49.708;10.816;2022-10-16T15:16:29;22.10;99.90
9383;DHT22;4731;49.708;10.816;2022-10-16T15:18:55;22.10;99.90
9383;DHT22;4731;49.708;10.816;2022-10-16T15:21:25;22.10;99.90
9383;DHT22;4731;49.708;10.816;2022-10-16T15:23:54;22.10;99.90
9383;DHT22;4731;49.708;10.816;2022-10-16T15:26:22;22.10;99.90
9383;DHT22;4731;49.708;10.816;2022-10-16T15:28:49;22.00;99.90
9383;DHT22;4731;49.708;10.816;2022-10-16T15:31:15;21.90;99.90
9383;DHT22;4731;49.708;10.816;2022-10-16T15:33:42;21.80;99.90
9383;DHT22;4731;49.708;10.816;2022-10-16T15:36:09;21.70;99.90
9383;DHT22;4731;49.708;10.816;2022-10-16T15:38:36;21.50;99.90
9383;DHT22;4731;49.708;10.816;2022-10-16T15:41:04;21.40;99.90
9383;DHT22;4731;49.708;10.816;2022-10-16T15:43:31;21.20;99.90
9383;DHT22;4731;49.708;10.816;2022-10-16T15:46:02;21.10;99.90
9383;DHT22;4731;49.708;10.816;2022-10-16T15:48:29;21.00;99.90
9383;DHT22;4731;49.708;10.816;2022-10-16T15:50:56;20.80;99.90
9383;DHT22;4731;49.708;10.816;2022-10-16T15:53:23;20.60;99.90
9383;DHT22;4731;49.708;10.816;2022-10-16T15:55:50;20.60;99.90
9383;DHT22;4731;49.708;10.816;2022-10-16T15:58:18;20.50;99.90
9383;DHT22;4731;49.708;10.816;2022-10-16T16:00:45;20.50;99.90
9383;DHT22;4731;49.708;10.816;2022-10-16T16:03:12;20.40;99.90
9383;DHT22;4731;49.708;10.816;2022-10-16T16:05:39;20.30;99.90
9383;DHT22;4731;49.708;10.816;2022-10-16T16:08:06;20.20;99.90
9383;DHT22;4731;49.708;10.816;2022-10-16T16:10:32;20.10;99.90